Time;durP1;ratioP1;P1;durP2;ratioP2;P2;SDS_P1;SDS_P2;PMS_P1;PMS_P2;Temp;Humidity;BMP_temperature;BMP_pressure;BME280_temperature;BME280_humidity;BME280_pressure;Samples;Min_cycle;Max_cycle;Signal;HPM_P1;HPM_P2
2022/01/11 00:01:28;;;;;;;9.63;6.37;;;-1.20;99.90;;;-0.34;100.00;99433.84;5023010;28;20541;-81
2022/01/11 00:03:59;;;;;;;12.20;6.07;;;-1.00;99.90;;;-0.40;100.00;99437.59;5015126;28;20557;-82
2022/01/11 00:06:34;;;;;;;9.93;5.80;;;-1.20;99.90;;;-0.51;100.00;99432.19;5017968;28;20885;-82
2022/01/11 00:09:08;;;;;;;10.40;6.17;;;-1.40;99.90;;;-0.55;100.00;99436.69;5027928;28;20870;-82
2022/01/11 00:11:39;;;;;;;12.73;6.67;;;-1.40;99.90;;;-0.64;100.00;99442.31;5027730;28;20575;-82
2022/01/11 00:14:10;;;;;;;8.30;5.27;;;-1.50;99.90;;;-0.63;100.00;99444.00;5021062;28;20473;-82
2022/01/11 00:16:39;;;;;;;9.23;5.27;;;-1.50;99.90;;;-0.62;100.00;99434.50;5024126;28;20465;-82
2022/01/11 00:19:13;;;;;;;8.60;6.00;;;-1.50;99.90;;;-0.59;100.00;99435.19;5024437;28;20477;-82
2022/01/11 00:21:47;;;;;;;7.90;5.57;;;-1.40;99.90;;;-0.60;100.00;99437.84;5022500;28;20454;-82
2022/01/11 00:24:30;;;;;;;10.73;5.30;;;-1.40;99.90;;;-0.63;100.00;99432.88;5025449;28;20556;-82
2022/01/11 00:27:02;;;;;;;10.63;5.63;;;-1.50;99.90;;;-0.63;100.00;99446.56;5021010;28;20525;-82
2022/01/11 00:29:34;;;;;;;7.80;4.80;;;-1.40;99.90;;;-0.62;100.00;99443.06;5024066;28;20795;-82
2022/01/11 00:32:08;;;;;;;8.90;5.23;;;-1.40;99.90;;;-0.74;100.00;99448.88;5027194;28;20458;-82
2022/01/11 00:34:47;;;;;;;7.40;4.90;;;-1.60;99.90;;;-0.79;100.00;99447.44;5020229;28;20490;-82
2022/01/11 00:37:18;;;;;;;8.27;5.50;;;-1.60;99.90;;;-0.78;100.00;99451.66;5018496;28;20892;-82
2022/01/11 00:39:50;;;;;;;9.73;5.30;;;-1.60;99.90;;;-0.90;100.00;99447.19;5020532;28;20565;-82
2022/01/11 00:42:22;;;;;;;8.00;4.90;;;-1.80;99.90;;;-0.92;100.00;99456.69;5020545;28;20550;-82
2022/01/11 00:44:53;;;;;;;8.93;5.00;;;-1.70;99.90;;;-0.95;100.00;99457.69;5016881;28;20857;-83
2022/01/11 00:47:24;;;;;;;9.00;5.97;;;-1.70;99.90;;;-1.02;100.00;99453.78;5016738;28;20824;-82
2022/01/11 00:49:55;;;;;;;9.50;5.60;;;-1.70;99.90;;;-1.00;100.00;99459.66;5020665;28;20466;-83
2022/01/11 00:52:26;;;;;;;9.17;5.87;;;-1.80;99.90;;;-0.95;100.00;99462.00;5018390;28;20516;-82
2022/01/11 00:54:58;;;;;;;8.37;5.17;;;-1.70;99.90;;;-0.94;100.00;99464.50;5019660;28;20529;-82
2022/01/11 00:57:29;;;;;;;10.60;5.60;;;-1.70;99.90;;;-0.98;100.00;99463.00;5014398;28;21041;-82
2022/01/11 00:59:59;;;;;;;9.40;5.70;;;-1.70;99.90;;;-1.06;100.00;99459.97;5019517;28;20494;-82
2022/01/11 01:02:29;;;;;;;8.33;5.03;;;-1.90;99.90;;;-1.12;100.00;99460.31;5016836;28;20496;-82
2022/01/11 01:05:01;;;;;;;9.10;4.47;;;-1.90;99.90;;;-1.12;100.00;99466.28;5019858;28;20479;-82
2022/01/11 01:07:30;;;;;;;8.20;5.37;;;-1.90;99.90;;;-1.18;100.00;99466.56;5017987;28;20559;-82
2022/01/11 01:10:00;;;;;;;8.53;5.47;;;-2.00;99.90;;;-1.24;100.00;99468.63;5019613;28;20478;-82
2022/01/11 01:12:31;;;;;;;10.23;4.97;;;-1.90;99.90;;;-1.31;100.00;99470.66;5014712;28;20553;-82
2022/01/11 01:15:02;;;;;;;8.77;5.63;;;-2.10;99.90;;;-1.41;100.00;99471.22;5020657;28;20499;-82
2022/01/11 01:17:31;;;;;;;8.20;4.77;;;-2.20;99.90;;;-1.41;100.00;99476.34;5021837;28;20516;-82
2022/01/11 01:20:04;;;;;;;8.47;5.10;;;-2.20;99.90;;;-1.50;100.00;99474.25;5018681;28;21126;-82
2022/01/11 01:22:33;;;;;;;7.47;4.73;;;-2.30;99.90;;;-1.43;100.00;99484.13;5017680;28;20496;-81
2022/01/11 01:25:04;;;;;;;9.30;4.60;;;-2.10;99.90;;;-1.37;100.00;99481.25;5019340;28;20466;-82
2022/01/11 01:27:34;;;;;;;9.60;4.93;;;-2.10;99.90;;;-1.34;100.00;99485.38;5019775;28;20497;-82
2022/01/11 01:30:06;;;;;;;10.57;5.20;;;-2.10;99.90;;;-1.33;100.00;99492.19;5016504;28;20465;-82
2022/01/11 01:32:37;;;;;;;6.53;3.87;;;-2.10;99.90;;;-1.31;100.00;99486.06;5016534;28;20545;-82
2022/01/11 01:35:09;;;;;;;6.27;4.37;;;-2.10;99.90;;;-1.26;100.00;99486.66;5020746;28;20478;-82
2022/01/11 01:37:39;;;;;;;10.73;4.77;;;-2.00;99.90;;;-1.25;100.00;99485.75;5017387;28;20827;-81
2022/01/11 01:40:13;;;;;;;6.53;4.27;;;-2.00;99.90;;;-1.29;100.00;99484.25;5016746;28;20869;-81
2022/01/11 01:42:44;;;;;;;8.43;5.00;;;-2.00;99.90;;;-1.32;100.00;99489.53;5022614;28;20464;-82
2022/01/11 01:45:15;;;;;;;6.57;4.70;;;-2.10;99.90;;;-1.41;100.00;99486.59;5018660;28;20469;-82
2022/01/11 01:47:45;;;;;;;14.33;4.10;;;-2.30;99.90;;;-1.44;100.00;99500.41;5016109;28;20923;-81
2022/01/11 01:50:18;;;;;;;10.10;5.70;;;-2.20;99.90;;;-1.52;100.00;99498.22;5014894;28;21021;-82
2022/01/11 01:52:48;;;;;;;7.40;4.20;;;-2.40;99.90;;;-1.63;100.00;99495.34;5024226;28;20469;-82
2022/01/11 01:55:18;;;;;;;7.00;5.07;;;-2.30;99.90;;;-1.63;100.00;99495.34;5017297;28;20512;-82
2022/01/11 01:57:51;;;;;;;6.47;3.93;;;-2.40;99.90;;;-1.66;100.00;99498.06;5018657;28;20466;-82
2022/01/11 02:00:23;;;;;;;8.33;5.50;;;-2.50;99.90;;;-1.68;100.00;99504.19;5018991;28;20511;-82
2022/01/11 02:03:05;;;;;;;6.70;4.40;;;-2.50;99.90;;;-1.68;100.00;99502.44;5019655;28;20519;-82
2022/01/11 02:05:37;;;;;;;7.83;4.10;;;-2.60;99.90;;;-1.60;100.00;99508.00;5021611;28;20469;-81
2022/01/11 02:08:09;;;;;;;6.83;4.20;;;-2.50;99.90;;;-1.55;100.00;99511.19;5015584;28;20473;-82
2022/01/11 02:10:40;;;;;;;11.10;4.63;;;-2.40;99.90;;;-1.56;100.00;99512.09;5020370;28;20486;-82
2022/01/11 02:13:10;;;;;;;7.80;4.40;;;-2.40;99.90;;;-1.58;100.00;99516.47;5018021;28;20477;-82
2022/01/11 02:15:40;;;;;;;5.37;3.93;;;-2.40;99.90;;;-1.63;100.00;99508.16;5020868;28;20558;-82
2022/01/11 02:18:14;;;;;;;8.50;5.17;;;-2.50;99.90;;;-1.66;100.00;99510.88;5017822;28;20879;-82
2022/01/11 02:20:49;;;;;;;7.47;4.70;;;-2.50;99.90;;;-1.71;100.00;99520.56;5017770;28;21039;-82
2022/01/11 02:23:21;;;;;;;7.70;4.77;;;-2.60;99.90;;;-1.74;100.00;99520.69;5014621;28;20493;-82
2022/01/11 02:25:52;;;;;;;4.77;3.67;;;-2.60;99.90;;;-1.71;100.00;99514.59;5020016;28;20467;-81
2022/01/11 02:28:25;;;;;;;7.90;4.87;;;-2.60;99.90;;;-1.73;100.00;99524.91;5016681;28;20466;-82
2022/01/11 02:30:57;;;;;;;10.20;4.10;;;-2.60;99.90;;;-1.82;100.00;99514.28;5017589;28;20502;-81
2022/01/11 02:33:34;;;;;;;5.20;4.10;;;-2.60;99.90;;;-1.83;100.00;99516.00;5018618;28;20470;-82
2022/01/11 02:36:10;;;;;;;6.67;4.40;;;-2.70;99.90;;;-1.86;100.00;99512.75;5021002;28;20468;-82
2022/01/11 02:38:40;;;;;;;6.00;4.17;;;-2.70;99.90;;;-1.90;100.00;99513.78;5018621;28;20461;-82
2022/01/11 02:41:08;;;;;;;6.90;4.13;;;-2.80;99.90;;;-1.91;100.00;99514.72;5017370;28;20462;-81
2022/01/11 02:43:43;;;;;;;7.57;3.60;;;-2.80;99.90;;;-1.91;100.00;99515.56;5015453;28;20584;-82
2022/01/11 02:46:13;;;;;;;8.10;3.63;;;-2.80;99.90;;;-1.82;100.00;99509.16;5015778;28;20471;-82
2022/01/11 02:48:43;;;;;;;9.13;4.90;;;-2.50;99.90;;;-1.88;100.00;99517.97;5018643;28;20465;-82
2022/01/11 02:51:13;;;;;;;9.20;4.53;;;-2.60;99.90;;;-1.98;100.00;99518.47;5018084;28;20509;-82
2022/01/11 02:53:44;;;;;;;6.70;4.80;;;-2.80;99.90;;;-1.98;100.00;99519.31;5017367;28;20457;-82
2022/01/11 02:56:16;;;;;;;5.30;4.13;;;-2.80;99.90;;;-2.01;100.00;99522.00;5017771;28;21113;-82
2022/01/11 02:58:46;;;;;;;5.33;4.10;;;-2.80;99.90;;;-2.01;100.00;99523.75;5019167;28;21000;-82
2022/01/11 03:01:17;;;;;;;8.80;4.10;;;-2.90;99.90;;;-2.07;100.00;99529.97;5015707;28;20502;-82
2022/01/11 03:03:47;;;;;;;9.27;4.40;;;-3.00;99.90;;;-2.09;100.00;99531.78;5016572;28;20913;-82
2022/01/11 03:06:19;;;;;;;7.37;4.53;;;-2.90;99.90;;;-2.11;100.00;99529.28;5016710;28;20541;-82
2022/01/11 03:08:49;;;;;;;9.03;4.27;;;-3.00;99.90;;;-2.11;100.00;99536.13;5020341;28;20879;-82
2022/01/11 03:11:24;;;;;;;8.57;4.77;;;-3.00;99.90;;;-2.11;100.00;99534.41;5020839;28;20553;-82
2022/01/11 03:13:55;;;;;;;6.97;4.43;;;-3.00;99.90;;;-2.06;100.00;99539.31;5018249;28;20492;-83
2022/01/11 03:16:25;;;;;;;10.83;5.27;;;-2.90;99.90;;;-2.09;100.00;99547.16;5017723;28;20489;-82
2022/01/11 03:18:54;;;;;;;8.10;4.30;;;-3.00;99.90;;;-2.06;100.00;99539.31;5022358;28;20457;-81
2022/01/11 03:21:28;;;;;;;6.50;4.40;;;-2.90;99.90;;;-2.11;100.00;99541.25;5025936;28;20467;-82
2022/01/11 03:23:58;;;;;;;8.43;4.70;;;-3.00;99.90;;;-2.06;100.00;99547.84;5019111;28;20583;-82
2022/01/11 03:26:27;;;;;;;7.03;4.10;;;-2.90;99.90;;;-2.06;100.00;99552.13;5021327;28;20459;-82
2022/01/11 03:28:56;;;;;;;9.17;4.90;;;-2.80;99.90;;;-2.16;100.00;99564.53;5018020;28;20992;-81
2022/01/11 03:31:27;;;;;;;6.80;4.37;;;-3.00;99.90;;;-2.17;100.00;99554.34;5024086;28;21067;-82
2022/01/11 03:33:58;;;;;;;7.90;4.57;;;-3.00;99.90;;;-2.16;100.00;99554.31;5023638;28;20834;-82
2022/01/11 03:36:30;;;;;;;7.10;4.60;;;-3.00;99.90;;;-2.21;100.00;99557.94;5021698;28;20463;-82
2022/01/11 03:38:59;;;;;;;9.17;5.10;;;-3.10;99.90;;;-2.18;100.00;99568.06;5019138;28;20501;-82
2022/01/11 03:41:29;;;;;;;8.90;4.80;;;-3.10;99.90;;;-2.23;100.00;99560.59;5023024;28;20452;-82
2022/01/11 03:44:00;;;;;;;8.17;3.80;;;-3.10;99.90;;;-2.23;100.00;99559.78;5021525;28;20599;-82
2022/01/11 03:46:30;;;;;;;11.27;5.00;;;-3.10;99.90;;;-2.19;100.00;99569.81;5021881;28;20550;-82
2022/01/11 03:49:00;;;;;;;7.87;4.97;;;-3.00;99.90;;;-2.22;100.00;99567.38;5024283;28;20463;-83
2022/01/11 03:51:35;;;;;;;9.33;5.00;;;-3.00;99.90;;;-2.19;100.00;99571.53;5022105;28;20471;-84
2022/01/11 03:54:10;;;;;;;13.50;5.23;;;-3.00;99.90;;;-2.17;100.00;99569.72;5021264;28;20478;-83
2022/01/11 03:56:41;;;;;;;6.80;4.27;;;-2.90;99.90;;;-2.17;100.00;99568.00;5022015;28;20464;-84
2022/01/11 03:59:10;;;;;;;11.27;4.40;;;-2.90;99.90;;;-2.13;100.00;99566.13;5016492;28;20472;-84
2022/01/11 04:01:40;;;;;;;11.13;5.50;;;-2.90;99.90;;;-2.19;100.00;99579.22;5027872;28;20543;-84
2022/01/11 04:04:11;;;;;;;10.30;4.27;;;-3.00;99.90;;;-2.24;100.00;99573.47;5025652;28;20497;-84
2022/01/11 04:06:43;;;;;;;9.57;4.27;;;-3.10;99.90;;;-2.28;100.00;99570.22;5019028;28;20468;-84
2022/01/11 04:09:13;;;;;;;8.20;4.60;;;-3.10;99.90;;;-2.31;100.00;99579.75;5020130;28;20498;-84
2022/01/11 04:11:44;;;;;;;6.33;4.07;;;-3.20;99.90;;;-2.34;100.00;99572.22;5016315;28;20548;-83
2022/01/11 04:14:15;;;;;;;8.20;4.60;;;-3.20;99.90;;;-2.32;100.00;99584.06;5022592;28;20464;-84
2022/01/11 04:16:43;;;;;;;7.60;4.13;;;-3.10;99.90;;;-2.33;100.00;99579.00;5022644;28;20513;-84
2022/01/11 04:19:14;;;;;;;7.30;4.40;;;-3.20;99.90;;;-2.30;100.00;99579.72;5021355;28;20540;-83
2022/01/11 04:21:45;;;;;;;7.83;4.00;;;-3.10;99.90;;;-2.30;100.00;99584.00;5022226;28;20579;-84
2022/01/11 04:24:15;;;;;;;9.23;5.50;;;-3.10;99.90;;;-2.24;100.00;99583.72;5019601;28;20510;-84
2022/01/11 04:26:48;;;;;;;5.37;3.60;;;-3.10;99.90;;;-2.19;100.00;99579.22;5019141;28;20486;-84
2022/01/11 04:29:19;;;;;;;6.10;4.13;;;-3.00;99.90;;;-2.25;100.00;99582.03;5025203;28;20885;-83
2022/01/11 04:31:48;;;;;;;8.10;4.67;;;-3.10;99.90;;;-2.28;100.00;99571.94;5031376;28;20490;-83
2022/01/11 04:34:19;;;;;;;9.30;4.50;;;-3.10;99.90;;;-2.26;100.00;99575.28;5023350;28;20546;-84
2022/01/11 04:36:50;;;;;;;7.07;4.27;;;-3.00;99.90;;;-2.25;100.00;99579.47;5021640;28;20890;-85
2022/01/11 04:39:20;;;;;;;9.63;4.50;;;-3.10;99.90;;;-2.22;100.00;99576.81;5015126;28;20964;-83
2022/01/11 04:41:51;;;;;;;5.07;3.30;;;-3.00;99.90;;;-2.21;100.00;99578.44;5018551;28;21054;-81
2022/01/11 04:44:21;;;;;;;7.90;3.90;;;-2.90;99.90;;;-2.29;100.00;99577.97;5013489;28;20976;-82
2022/01/11 04:46:51;;;;;;;5.87;3.73;;;-3.10;99.90;;;-2.29;100.00;99580.53;5020160;28;20516;-83
2022/01/11 04:49:22;;;;;;;8.50;4.50;;;-3.10;99.90;;;-2.25;100.00;99587.16;5016427;28;20959;-82
2022/01/11 04:51:54;;;;;;;6.03;3.40;;;-3.00;99.90;;;-2.23;100.00;99575.97;5016686;28;21086;-81
2022/01/11 04:54:24;;;;;;;4.53;3.57;;;-3.00;99.90;;;-2.29;100.00;99581.34;5019903;28;20454;-75
2022/01/11 04:56:53;;;;;;;5.80;3.53;;;-3.10;99.90;;;-2.33;100.00;99582.41;5022073;28;20469;-75
2022/01/11 04:59:22;;;;;;;7.17;4.10;;;-3.00;99.90;;;-2.29;100.00;99581.34;5010791;28;20489;-75
2022/01/11 05:01:52;;;;;;;9.90;4.03;;;-3.00;99.90;;;-2.29;100.00;99581.34;5014829;28;20902;-75
2022/01/11 05:04:23;;;;;;;6.50;3.57;;;-3.10;99.90;;;-2.23;100.00;99580.25;5026140;28;20460;-76
2022/01/11 05:06:56;;;;;;;4.50;3.07;;;-3.00;99.90;;;-2.28;100.00;99583.03;5021680;28;20477;-75
2022/01/11 05:09:26;;;;;;;8.87;4.20;;;-3.10;99.90;;;-2.28;100.00;99585.56;5023560;28;20459;-76
2022/01/11 05:11:55;;;;;;;5.97;3.63;;;-3.10;99.90;;;-2.28;100.00;99592.44;5018460;28;20456;-76
2022/01/11 05:14:24;;;;;;;5.10;3.43;;;-3.10;99.90;;;-2.27;100.00;99596.66;5019228;28;20439;-76
2022/01/11 05:16:54;;;;;;;5.70;3.90;;;-3.10;99.90;;;-2.20;100.00;99590.38;5023333;28;20519;-76
2022/01/11 05:19:24;;;;;;;6.23;3.57;;;-3.00;99.90;;;-2.18;100.00;99588.56;5018568;28;20464;-76
2022/01/11 05:21:56;;;;;;;9.30;3.93;;;-3.00;99.90;;;-2.17;100.00;99592.78;5016139;28;20492;-75
2022/01/11 05:24:26;;;;;;;7.50;3.43;;;-3.00;99.90;;;-2.16;100.00;99591.88;5020136;28;20476;-75
2022/01/11 05:26:55;;;;;;;4.67;3.23;;;-3.00;99.90;;;-2.08;100.00;99600.03;5022355;28;20547;-76
2022/01/11 05:29:25;;;;;;;7.53;4.43;;;-2.80;99.90;;;-2.06;100.00;99598.25;5018116;28;20516;-75
2022/01/11 05:31:56;;;;;;;6.73;3.70;;;-2.80;99.90;;;-2.05;100.00;99605.06;5014728;28;20468;-75
2022/01/11 05:34:27;;;;;;;6.17;3.47;;;-2.80;99.90;;;-2.04;100.00;99599.84;5019185;28;20466;-75
2022/01/11 05:36:58;;;;;;;9.30;4.50;;;-2.80;99.90;;;-2.01;100.00;99601.41;5019599;28;20452;-75
2022/01/11 05:39:27;;;;;;;5.40;3.37;;;-2.80;99.90;;;-1.95;100.00;99606.28;5026046;28;20453;-75
2022/01/11 05:41:57;;;;;;;18.40;5.30;;;-2.70;99.90;;;-1.93;100.00;99609.59;5015721;28;20473;-75
2022/01/11 05:44:26;;;;;;;3.90;3.37;;;-2.70;99.90;;;-1.92;100.00;99616.41;5026008;28;20469;-76
2022/01/11 05:46:55;;;;;;;9.53;3.67;;;-2.60;99.90;;;-1.90;100.00;99621.44;5020744;28;20501;-79
2022/01/11 05:49:25;;;;;;;8.87;4.50;;;-2.60;99.90;;;-1.91;100.00;99614.66;5021646;28;20457;-76
2022/01/11 05:51:54;;;;;;;9.27;4.20;;;-2.70;99.90;;;-1.86;100.00;99617.84;5021827;28;20476;-76
2022/01/11 05:54:25;;;;;;;6.17;3.33;;;-2.60;99.90;;;-1.86;100.00;99626.34;5027838;28;20490;-76
2022/01/11 05:56:56;;;;;;;5.87;3.97;;;-2.60;99.90;;;-1.87;100.00;99623.84;5023267;28;20837;-76
2022/01/11 05:59:25;;;;;;;8.50;3.70;;;-2.70;99.90;;;-1.84;100.00;99624.53;5024322;28;20566;-76
2022/01/11 06:01:56;;;;;;;6.07;4.10;;;-2.60;99.90;;;-1.80;100.00;99628.63;5021752;28;20547;-76
2022/01/11 06:04:27;;;;;;;10.53;4.50;;;-2.60;99.90;;;-1.77;100.00;99636.19;5024426;28;20980;-76
2022/01/11 06:06:57;;;;;;;3.33;2.90;;;-2.50;99.90;;;-1.76;100.00;99630.16;5019290;28;21028;-76
2022/01/11 06:09:28;;;;;;;5.83;3.17;;;-2.50;99.90;;;-1.71;100.00;99629.94;5019478;28;20961;-76
2022/01/11 06:11:58;;;;;;;6.17;3.90;;;-2.50;99.90;;;-1.71;100.00;99633.34;5022275;28;20468;-76
2022/01/11 06:14:28;;;;;;;10.23;3.90;;;-2.50;99.90;;;-1.66;100.00;99641.63;5018041;28;20472;-76
2022/01/11 06:16:58;;;;;;;10.03;3.50;;;-2.30;99.90;;;-1.61;100.00;99631.19;5019945;28;20901;-75
2022/01/11 06:19:31;;;;;;;6.57;3.50;;;-2.20;99.90;;;-1.61;100.00;99626.88;5020191;28;20461;-76
2022/01/11 06:22:01;;;;;;;6.10;3.00;;;-2.30;99.90;;;-1.58;100.00;99626.75;5021859;28;20456;-76
2022/01/11 06:24:32;;;;;;;8.57;3.97;;;-2.30;99.90;;;-1.55;100.00;99636.84;5016976;28;20968;-76
2022/01/11 06:27:02;;;;;;;8.53;3.77;;;-2.30;99.90;;;-1.50;100.00;99634.06;5022761;28;20495;-77
2022/01/11 06:29:32;;;;;;;13.20;4.23;;;-2.20;99.90;;;-1.46;100.00;99632.19;5019757;28;20469;-76
2022/01/11 06:32:02;;;;;;;8.97;3.57;;;-2.20;99.90;;;-1.45;100.00;99641.53;5022611;28;20877;-76
2022/01/11 06:34:32;;;;;;;5.80;3.20;;;-2.20;99.90;;;-1.43;100.00;99630.31;5022360;28;20461;-75
2022/01/11 06:37:03;;;;;;;6.87;4.10;;;-2.10;99.90;;;-1.38;100.00;99637.78;5019790;28;20454;-76
2022/01/11 06:39:36;;;;;;;4.13;3.37;;;-2.10;99.90;;;-1.35;100.00;99635.91;5021338;28;20508;-76
2022/01/11 06:42:07;;;;;;;11.60;4.23;;;-2.10;99.90;;;-1.34;100.00;99634.16;5028272;28;20454;-77
2022/01/11 06:44:38;;;;;;;10.60;4.30;;;-2.10;99.90;;;-1.32;100.00;99640.88;5016554;28;21001;-76
2022/01/11 06:47:08;;;;;;;7.77;4.00;;;-2.00;99.90;;;-1.31;100.00;99637.41;5024270;28;20505;-76
2022/01/11 06:49:39;;;;;;;7.83;4.23;;;-2.10;99.90;;;-1.28;100.00;99639.00;5015506;28;20490;-76
2022/01/11 06:52:09;;;;;;;5.20;3.43;;;-2.10;99.90;;;-1.26;100.00;99652.59;5027276;28;20454;-76
2022/01/11 06:54:41;;;;;;;8.60;4.10;;;-2.00;99.90;;;-1.22;100.00;99648.97;5022847;28;20467;-76
2022/01/11 06:57:12;;;;;;;6.37;4.07;;;-1.90;99.90;;;-1.18;100.00;99645.38;5020045;28;20568;-76
2022/01/11 06:59:42;;;;;;;10.13;3.90;;;-1.90;99.90;;;-1.16;100.00;99651.25;5023431;28;20891;-76
2022/01/11 07:02:12;;;;;;;9.30;3.80;;;-1.90;99.90;;;-1.15;100.00;99650.34;5023980;28;20504;-76
2022/01/11 07:04:43;;;;;;;8.00;4.27;;;-1.80;99.90;;;-1.12;100.00;99642.50;5021630;28;20458;-75
2022/01/11 07:07:13;;;;;;;7.43;4.27;;;-1.80;99.90;;;-1.09;100.00;99660.31;5015646;28;20525;-75
2022/01/11 07:09:44;;;;;;;9.03;3.60;;;-1.80;99.90;;;-1.06;100.00;99661.00;5025916;28;20457;-75
2022/01/11 07:12:15;;;;;;;7.63;4.33;;;-1.80;99.90;;;-1.03;100.00;99667.72;5023314;28;20476;-75
2022/01/11 07:14:55;;;;;;;7.20;4.23;;;-1.80;99.90;;;-0.99;100.00;99671.78;5014573;28;20588;-75
2022/01/11 07:17:25;;;;;;;7.30;4.30;;;-1.70;99.90;;;-0.98;100.00;99672.63;5017947;28;20555;-75
2022/01/11 07:19:56;;;;;;;7.60;4.40;;;-1.70;99.90;;;-0.95;100.00;99670.75;5025181;28;20463;-75
2022/01/11 07:22:26;;;;;;;6.40;3.83;;;-1.70;99.90;;;-0.93;100.00;99673.22;5019842;28;20457;-75
2022/01/11 07:24:57;;;;;;;12.00;4.33;;;-1.70;99.90;;;-0.94;100.00;99680.13;5021157;28;21013;-76
2022/01/11 07:27:27;;;;;;;8.97;4.80;;;-1.70;99.90;;;-0.91;100.00;99685.09;5019190;28;20584;-76
2022/01/11 07:29:58;;;;;;;10.30;5.73;;;-1.70;99.90;;;-0.88;100.00;99682.38;5020429;28;21099;-76
2022/01/11 07:32:31;;;;;;;10.63;4.90;;;-1.60;99.90;;;-0.88;100.00;99679.81;5020505;28;20464;-79
2022/01/11 07:35:01;;;;;;;8.33;4.90;;;-1.60;99.90;;;-0.83;100.00;99693.22;5020420;28;20462;-76
2022/01/11 07:37:32;;;;;;;9.50;4.43;;;-1.60;99.90;;;-0.80;100.00;99687.13;5027063;28;20490;-75
2022/01/11 07:40:03;;;;;;;9.90;5.37;;;-1.40;99.90;;;-0.80;100.00;99693.06;5025317;28;20505;-75
2022/01/11 07:42:33;;;;;;;13.97;6.70;;;-1.50;99.90;;;-0.80;100.00;99693.06;5021761;28;20485;-76
2022/01/11 07:45:03;;;;;;;12.83;6.40;;;-1.50;99.90;;;-0.74;100.00;99697.94;5022166;28;20471;-75
2022/01/11 07:47:34;;;;;;;14.13;6.63;;;-1.50;99.90;;;-0.71;100.00;99699.50;5023194;28;20497;-76
2022/01/11 07:50:06;;;;;;;17.80;6.00;;;-1.40;99.90;;;-0.70;100.00;99696.88;5019884;28;20583;-75
2022/01/11 07:52:36;;;;;;;14.20;5.83;;;-1.50;99.90;;;-0.67;100.00;99707.00;5027802;28;20450;-75
2022/01/11 07:55:10;;;;;;;7.80;5.20;;;-1.40;99.90;;;-0.67;100.00;99712.13;5024431;28;20785;-76
2022/01/11 07:57:39;;;;;;;10.90;4.80;;;-1.40;99.90;;;-0.64;100.00;99711.97;5016356;28;20509;-75
2022/01/11 08:00:10;;;;;;;7.33;4.80;;;-1.40;99.90;;;-0.62;100.00;99712.72;5021411;28;20524;-75
2022/01/11 08:02:39;;;;;;;9.10;5.00;;;-1.30;99.90;;;-0.61;100.00;99714.38;5023601;28;20482;-75
2022/01/11 08:05:13;;;;;;;11.10;5.33;;;-1.30;99.90;;;-0.58;100.00;99713.41;5023142;28;20513;-76
2022/01/11 08:07:42;;;;;;;12.33;5.47;;;-1.30;99.90;;;-0.57;100.00;99715.91;5019629;28;20494;-75
2022/01/11 08:10:17;;;;;;;12.37;5.10;;;-1.30;99.90;;;-0.56;100.00;99722.72;5026359;28;20450;-76
2022/01/11 08:12:52;;;;;;;8.27;4.40;;;-1.30;99.90;;;-0.51;100.00;99720.72;5023912;28;20481;-75
2022/01/11 08:15:22;;;;;;;12.17;5.43;;;-1.20;99.90;;;-0.47;100.00;99721.41;5024453;28;20455;-75
2022/01/11 08:17:52;;;;;;;23.50;5.80;;;-1.20;99.90;;;-0.41;100.00;99727.97;5026711;28;20486;-75
2022/01/11 08:20:21;;;;;;;19.27;6.70;;;-1.10;99.90;;;-0.39;100.00;99723.59;5018309;28;20483;-75
2022/01/11 08:22:51;;;;;;;25.07;7.73;;;-1.10;99.90;;;-0.38;100.00;99726.06;5023207;28;20470;-75
2022/01/11 08:25:21;;;;;;;26.03;8.37;;;-1.10;99.90;;;-0.38;100.00;99731.22;5023319;28;20791;-75
2022/01/11 08:27:51;;;;;;;26.73;6.37;;;-1.00;99.90;;;-0.35;100.00;99738.78;5025950;28;20501;-75
2022/01/11 08:30:21;;;;;;;23.27;6.00;;;-1.10;99.90;;;-0.32;100.00;99740.38;5017648;28;20971;-75
2022/01/11 08:32:51;;;;;;;24.90;6.50;;;-1.00;99.90;;;-0.32;100.00;99743.78;5021262;28;20476;-75
2022/01/11 08:35:20;;;;;;;29.07;7.00;;;-1.00;99.90;;;-0.30;100.00;99744.50;5024113;28;20529;-75
2022/01/11 08:37:49;;;;;;;31.40;8.50;;;-1.00;99.90;;;-0.28;100.00;99747.03;5025072;28;20807;-75
2022/01/11 08:40:21;;;;;;;37.17;6.67;;;-1.00;99.90;;;-0.26;100.00;99750.34;5023604;28;20442;-75
2022/01/11 08:42:52;;;;;;;26.90;6.93;;;-1.00;99.90;;;-0.24;100.00;99759.63;5025130;28;20981;-75
2022/01/11 08:45:22;;;;;;;42.40;9.20;;;-1.00;99.90;;;-0.21;100.00;99758.66;5024339;28;20509;-75
2022/01/11 08:47:52;;;;;;;25.17;7.30;;;-1.00;99.90;;;-0.21;100.00;99756.09;5014562;28;20985;-75
2022/01/11 08:50:21;;;;;;;43.20;7.80;;;-0.90;99.90;;;-0.19;100.00;99754.25;5015984;28;20459;-75
2022/01/11 08:52:51;;;;;;;28.40;8.50;;;-0.90;99.90;;;-0.17;100.00;99755.84;5012896;28;20451;-75
2022/01/11 08:55:23;;;;;;;27.27;6.80;;;-0.90;99.90;;;-0.16;100.00;99754.09;5013559;28;20473;-75
2022/01/11 08:57:52;;;;;;;38.43;8.00;;;-0.90;99.90;;;-0.13;100.00;99757.34;5017988;28;20447;-75
2022/01/11 09:00:22;;;;;;;29.50;8.70;;;-0.90;99.90;;;-0.10;100.00;99759.75;5016472;28;20519;-75
2022/01/11 09:02:52;;;;;;;42.13;9.60;;;-0.80;99.90;;;-0.07;100.00;99758.78;5020353;28;20517;-75
2022/01/11 09:05:24;;;;;;;36.33;8.50;;;-0.80;99.90;;;-0.04;100.00;99766.34;5023717;28;20541;-75
2022/01/11 09:07:54;;;;;;;36.33;8.87;;;-0.80;99.90;;;-0.01;100.00;99758.47;5025875;28;21057;-76
2022/01/11 09:10:24;;;;;;;42.50;8.90;;;-0.70;99.90;;;0.00;100.00;99770.44;5023135;28;20467;-75
2022/01/11 09:12:53;;;;;;;47.30;8.70;;;-0.80;99.90;;;0.04;100.00;99759.06;5022919;28;20828;-75
2022/01/11 09:15:23;;;;;;;35.43;9.67;;;-0.70;99.90;;;0.08;100.00;99764.88;5023353;28;20443;-76
2022/01/11 09:17:54;;;;;;;24.87;7.83;;;-0.70;99.90;;;0.12;100.00;99771.50;5022174;28;20785;-75
2022/01/11 09:20:23;;;;;;;42.90;8.83;;;-0.60;99.90;;;0.14;100.00;99764.56;5024518;28;21037;-75
2022/01/11 09:22:54;;;;;;;48.67;10.03;;;-0.50;99.90;;;0.17;100.00;99765.25;5023282;28;20481;-75
2022/01/11 09:25:26;;;;;;;39.33;9.43;;;-0.50;99.90;;;0.19;100.00;99765.97;5019898;28;20844;-75
2022/01/11 09:27:56;;;;;;;37.87;9.30;;;-0.40;99.90;;;0.23;100.00;99761.50;5011215;28;20488;-75
2022/01/11 09:30:26;;;;;;;44.67;9.77;;;-0.50;99.90;;;0.27;100.00;99761.28;5015483;28;20529;-76
2022/01/11 09:32:55;;;;;;;37.87;10.30;;;-0.40;99.90;;;0.29;100.00;99762.03;5017547;28;21009;-75
2022/01/11 09:35:26;;;;;;;45.33;11.80;;;-0.20;99.90;;;0.33;100.00;99762.69;5018242;28;20460;-76
2022/01/11 09:37:56;;;;;;;54.13;11.00;;;-0.20;99.90;;;0.37;100.00;99772.75;5015013;28;20477;-75
2022/01/11 09:40:27;;;;;;;55.17;12.67;;;-0.20;99.90;;;0.42;100.00;99755.31;5021855;28;20550;-75
2022/01/11 09:42:57;;;;;;;40.03;10.43;;;-0.20;99.90;;;0.44;100.00;99768.94;5021035;28;20467;-75
2022/01/11 09:45:27;;;;;;;43.27;11.03;;;-0.20;99.90;;;0.48;100.00;99767.88;5017622;28;20888;-75
2022/01/11 09:48:01;;;;;;;34.60;10.93;;;-0.10;99.90;;;0.52;100.00;99770.28;5021388;28;20496;-75
2022/01/11 09:50:31;;;;;;;44.93;12.27;;;-0.10;99.90;;;0.55;100.00;99775.25;5023308;28;20455;-75
2022/01/11 09:53:02;;;;;;;52.27;11.20;;;-0.10;99.90;;;0.60;100.00;99776.66;5014138;28;20475;-76
2022/01/11 09:55:36;;;;;;;39.47;10.40;;;0.00;99.90;;;0.66;100.00;99778.09;5015727;28;20542;-76
2022/01/11 09:58:07;;;;;;;62.33;11.70;;;0.10;99.90;;;0.71;100.00;99776.09;5023110;28;20504;-75
2022/01/11 10:00:35;;;;;;;42.40;12.77;;;0.20;99.90;;;0.74;100.00;99778.50;5022964;28;20528;-76
2022/01/11 10:03:06;;;;;;;32.43;11.00;;;0.20;99.90;;;0.76;100.00;99774.94;5019354;28;20470;-76
2022/01/11 10:05:37;;;;;;;41.47;10.63;;;0.20;99.90;;;0.81;100.00;99772.94;5015730;28;20472;-79
2022/01/11 10:08:25;;;;;;;46.13;12.03;;;0.20;99.90;;;0.86;100.00;99781.25;5022170;28;20555;-75
2022/01/11 10:11:00;;;;;;;47.43;12.70;;;0.30;99.90;;;0.90;100.00;99784.50;5018285;28;20945;-75
2022/01/11 10:13:36;;;;;;;26.07;9.40;;;0.20;99.90;;;0.95;100.00;99778.16;5017227;28;20469;-75
2022/01/11 10:16:23;;;;;;;20.63;9.00;;;0.30;99.90;;;1.00;100.00;99773.63;5014616;28;20499;-76
2022/01/11 10:18:56;;;;;;;21.03;8.70;;;0.40;99.90;;;1.06;100.00;99776.75;5019822;28;20470;-75
2022/01/11 10:21:39;;;;;;;26.70;8.40;;;0.40;99.90;;;1.10;100.00;99779.06;5019876;28;20503;-75
2022/01/11 10:24:33;;;;;;;22.93;9.20;;;0.50;99.90;;;1.14;100.00;99783.16;5023526;28;20721;-75
2022/01/11 10:27:13;;;;;;;28.23;8.60;;;0.50;99.90;;;1.17;100.00;99780.41;5015304;28;20499;-75